Terminal Aerodrome Forecast
Issued by NWS North Platte, NE

Home | Current Version | Previous Version | Text Only | Print | Product List | Glossary On
Versions: 1 2 3 4 5 6 7 8 9 10 11 12 13 14
000
FTUS43 KLBF 271124
TAFLBF
TAF
KLBF 271124Z 2712/2812 VRB03KT 1/4SM FG VV001
      TEMPO 2712/2714 1SM BR SCT001
     FM271400 17005KT P6SM SCT003 SCT250
     FM271600 17007KT P6SM SCT250
     FM280000 15006KT P6SM BKN250=

USA.gov is the U.S. government's official web portal to all federal, state and local government web resources and services.